createdAt,value
2024-01-20T00:01:03.635Z,68.70
2024-01-20T00:03:30.212Z,68.70
2024-01-20T00:05:56.778Z,68.90
2024-01-20T00:08:23.524Z,68.80
2024-01-20T00:10:50.198Z,68.60
2024-01-20T00:13:16.793Z,68.50
2024-01-20T00:15:43.381Z,68.40
2024-01-20T00:18:10.135Z,68.50
2024-01-20T00:20:36.867Z,68.70
2024-01-20T00:23:03.467Z,68.60
2024-01-20T00:25:30.135Z,68.50
2024-01-20T00:27:56.689Z,68.50
2024-01-20T00:30:23.433Z,68.40
2024-01-20T00:32:50.773Z,68.20
2024-01-20T00:35:17.661Z,68.20
2024-01-20T00:37:44.362Z,68.00
2024-01-20T00:40:10.922Z,67.70
2024-01-20T00:42:37.451Z,67.60
2024-01-20T00:45:03.979Z,67.70
2024-01-20T00:47:30.543Z,67.80
2024-01-20T00:49:57.099Z,67.70
2024-01-20T00:52:23.637Z,67.60
2024-01-20T00:54:50.171Z,67.90
2024-01-20T00:57:16.700Z,67.90
2024-01-20T00:59:43.251Z,67.80
2024-01-20T01:02:09.825Z,67.50
2024-01-20T01:04:36.394Z,67.50
2024-01-20T01:07:02.983Z,67.30
2024-01-20T01:09:29.510Z,67.50
2024-01-20T01:11:56.037Z,67.60
2024-01-20T01:14:22.644Z,67.60
2024-01-20T01:16:49.245Z,67.50
2024-01-20T01:19:15.807Z,67.50
2024-01-20T01:21:45.203Z,68.10
2024-01-20T01:24:11.814Z,67.30
2024-01-20T01:26:38.511Z,67.10
2024-01-20T01:29:05.120Z,67.30
2024-01-20T01:31:31.668Z,67.20
2024-01-20T01:33:58.261Z,67.20
2024-01-20T01:36:24.803Z,67.10
2024-01-20T01:38:51.356Z,66.90
2024-01-20T01:41:18.004Z,67.00
2024-01-20T01:43:44.630Z,66.80
2024-01-20T01:46:11.162Z,66.60
2024-01-20T01:48:37.767Z,66.40
2024-01-20T01:51:04.366Z,66.60
2024-01-20T01:53:30.892Z,66.70
2024-01-20T01:55:57.415Z,66.50
2024-01-20T01:58:23.939Z,66.50
2024-01-20T02:00:50.491Z,66.50
2024-01-20T02:03:17.301Z,66.40
2024-01-20T02:05:43.908Z,67.10
2024-01-20T02:08:10.465Z,66.60
2024-01-20T02:10:36.988Z,66.60
2024-01-20T02:13:03.516Z,66.30
2024-01-20T02:15:30.084Z,66.30
2024-01-20T02:17:56.856Z,66.40
2024-01-20T02:20:23.524Z,66.30
2024-01-20T02:22:50.060Z,66.30
2024-01-20T02:25:16.587Z,66.40
2024-01-20T02:27:43.141Z,66.30
2024-01-20T02:30:09.797Z,65.90
2024-01-20T02:32:36.430Z,66.20
2024-01-20T02:35:02.997Z,66.10
2024-01-20T02:37:29.552Z,66.00
2024-01-20T02:39:56.087Z,66.20
2024-01-20T02:42:22.638Z,66.00
2024-01-20T02:44:49.236Z,65.80
2024-01-20T02:47:15.773Z,65.60
2024-01-20T02:49:42.527Z,65.50
2024-01-20T02:52:09.228Z,65.70
2024-01-20T02:54:35.807Z,65.70
2024-01-20T02:57:02.474Z,65.70
2024-01-20T02:59:29.040Z,65.50
2024-01-20T03:01:55.576Z,65.80
2024-01-20T03:04:22.226Z,65.50
2024-01-20T03:06:48.923Z,65.70
2024-01-20T03:09:15.479Z,65.80
2024-01-20T03:11:42.031Z,65.70
2024-01-20T03:14:08.544Z,66.00
2024-01-20T03:16:35.079Z,66.00
2024-01-20T03:19:01.635Z,65.90
2024-01-20T03:21:28.218Z,66.60
2024-01-20T03:23:54.771Z,65.80
2024-01-20T03:26:21.343Z,65.70
2024-01-20T03:28:47.869Z,65.90
2024-01-20T03:31:14.403Z,66.20
2024-01-20T03:33:41.090Z,65.60
2024-01-20T03:36:07.744Z,65.80
2024-01-20T03:38:34.286Z,66.00
2024-01-20T03:41:00.819Z,65.90
2024-01-20T03:43:27.342Z,65.90
2024-01-20T03:45:53.864Z,65.70
2024-01-20T03:48:20.464Z,65.60
2024-01-20T03:50:47.037Z,65.50
2024-01-20T03:53:13.560Z,65.30
2024-01-20T03:55:40.085Z,65.50
2024-01-20T03:58:06.606Z,65.30
2024-01-20T04:00:33.254Z,65.10
2024-01-20T04:02:59.912Z,64.80
2024-01-20T04:05:26.534Z,64.90
2024-01-20T04:07:53.064Z,65.10
2024-01-20T04:10:19.589Z,65.10
2024-01-20T04:12:46.109Z,65.10
2024-01-20T04:15:12.685Z,64.80
2024-01-20T04:17:39.316Z,64.80
2024-01-20T04:20:05.912Z,64.70
2024-01-20T04:22:32.448Z,64.80
2024-01-20T04:24:58.968Z,65.00
2024-01-20T04:27:25.575Z,65.10
2024-01-20T04:29:52.128Z,65.10
2024-01-20T04:32:18.674Z,65.00
2024-01-20T04:34:45.234Z,64.90
2024-01-20T04:37:11.810Z,64.90
2024-01-20T04:39:39.342Z,65.00
2024-01-20T04:42:06.084Z,65.30
2024-01-20T04:44:32.652Z,65.00
2024-01-20T04:46:59.181Z,65.00
2024-01-20T04:49:25.977Z,65.10
2024-01-20T04:51:52.533Z,65.00
2024-01-20T04:54:19.112Z,64.90
2024-01-20T04:56:45.696Z,65.30
2024-01-20T04:59:12.227Z,65.00
2024-01-20T05:01:40.840Z,64.80
2024-01-20T05:04:07.634Z,64.90
2024-01-20T05:06:34.347Z,65.10
2024-01-20T05:09:00.963Z,65.10
2024-01-20T05:11:27.505Z,64.90
2024-01-20T05:13:54.022Z,65.00
2024-01-20T05:16:20.591Z,64.80
2024-01-20T05:18:47.576Z,64.80
2024-01-20T05:21:14.165Z,64.60
2024-01-20T05:23:40.689Z,64.60
2024-01-20T05:26:07.235Z,64.30
2024-01-20T05:28:33.770Z,64.10
2024-01-20T05:31:00.313Z,64.10
2024-01-20T05:33:26.911Z,64.20
2024-01-20T05:35:53.539Z,63.80
2024-01-20T05:38:20.088Z,63.50
2024-01-20T05:40:46.610Z,63.40
2024-01-20T05:43:13.141Z,63.30
2024-01-20T05:45:39.689Z,63.50
2024-01-20T05:48:06.297Z,63.60
2024-01-20T05:50:32.866Z,63.40
2024-01-20T05:52:59.383Z,63.50
2024-01-20T05:55:25.918Z,63.60
2024-01-20T05:57:52.436Z,63.70
2024-01-20T06:00:19.042Z,63.40
2024-01-20T06:02:45.605Z,63.40
2024-01-20T06:05:12.154Z,63.80
2024-01-20T06:07:38.679Z,63.60
2024-01-20T06:10:05.288Z,63.80
2024-01-20T06:12:31.910Z,64.00
2024-01-20T06:14:58.533Z,64.00
2024-01-20T06:17:25.063Z,64.00
2024-01-20T06:19:51.601Z,64.20
2024-01-20T06:22:18.125Z,64.10
2024-01-20T06:24:44.658Z,64.20
2024-01-20T06:27:11.753Z,64.10
2024-01-20T06:29:38.283Z,63.90
2024-01-20T06:32:04.795Z,63.90
2024-01-20T06:34:31.376Z,64.00
2024-01-20T06:36:58.090Z,64.00
2024-01-20T06:39:24.702Z,63.80
2024-01-20T06:41:51.230Z,63.80
2024-01-20T06:44:17.764Z,63.60
2024-01-20T06:46:44.297Z,63.50
2024-01-20T06:49:10.917Z,63.50
2024-01-20T06:51:37.577Z,63.60
2024-01-20T06:54:04.234Z,63.60
2024-01-20T06:56:30.794Z,63.40
2024-01-20T06:58:58.049Z,63.10
2024-01-20T07:01:24.831Z,63.10
2024-01-20T07:03:51.589Z,63.10
2024-01-20T07:06:18.278Z,63.10
2024-01-20T07:08:44.851Z,63.20
2024-01-20T07:11:11.407Z,63.20
2024-01-20T07:13:37.981Z,62.90
2024-01-20T07:16:04.555Z,63.10
2024-01-20T07:18:31.126Z,62.90
2024-01-20T07:20:57.675Z,62.50
2024-01-20T07:23:24.212Z,62.40
2024-01-20T07:25:50.726Z,62.50
2024-01-20T07:28:17.234Z,63.00
2024-01-20T07:30:43.769Z,63.00
2024-01-20T07:33:10.435Z,63.00
2024-01-20T07:35:37.037Z,63.20
2024-01-20T07:38:03.564Z,63.10
2024-01-20T07:40:30.085Z,63.00
2024-01-20T07:42:56.622Z,62.60
2024-01-20T07:45:23.166Z,62.70
2024-01-20T07:47:49.747Z,62.90
2024-01-20T07:50:16.299Z,62.60
2024-01-20T07:52:42.848Z,62.50
2024-01-20T07:55:09.404Z,62.70
2024-01-20T07:57:36.059Z,62.50
2024-01-20T08:00:02.708Z,62.40
2024-01-20T08:02:29.272Z,62.60
2024-01-20T08:04:55.817Z,62.30
2024-01-20T08:07:22.359Z,62.30
2024-01-20T08:09:49.166Z,62.40
2024-01-20T08:12:15.731Z,62.20
2024-01-20T08:14:42.287Z,62.50
2024-01-20T08:17:08.835Z,62.30
2024-01-20T08:19:35.464Z,62.40
2024-01-20T08:22:02.011Z,62.60
2024-01-20T08:24:28.589Z,62.60
2024-01-20T08:26:55.192Z,62.80
2024-01-20T08:29:21.734Z,62.50
2024-01-20T08:31:48.265Z,62.00
2024-01-20T08:34:14.935Z,62.10
2024-01-20T08:36:41.610Z,62.20
2024-01-20T08:39:08.160Z,62.20
2024-01-20T08:41:34.681Z,62.60
2024-01-20T08:44:01.208Z,62.70
2024-01-20T08:46:27.727Z,63.70
2024-01-20T08:48:54.251Z,63.00
2024-01-20T08:51:20.856Z,63.00
2024-01-20T08:53:47.418Z,63.10
2024-01-20T08:56:13.945Z,62.90
2024-01-20T08:58:40.483Z,62.50
2024-01-20T09:01:07.030Z,62.50
2024-01-20T09:03:33.664Z,62.50
2024-01-20T09:06:00.383Z,62.70
2024-01-20T09:08:27.002Z,62.80
2024-01-20T09:10:53.518Z,62.90
2024-01-20T09:13:20.067Z,63.00
2024-01-20T09:15:46.727Z,62.90
2024-01-20T09:18:13.532Z,62.90
2024-01-20T09:20:40.213Z,62.80
2024-01-20T09:23:06.763Z,62.80
2024-01-20T09:25:33.457Z,62.70
2024-01-20T09:28:00.063Z,62.70
2024-01-20T09:30:26.624Z,62.70
2024-01-20T09:32:53.231Z,62.80
2024-01-20T09:35:19.856Z,62.80
2024-01-20T09:37:46.373Z,62.50
2024-01-20T09:40:14.000Z,62.90
2024-01-20T09:42:40.867Z,63.20
2024-01-20T09:45:07.572Z,62.80
2024-01-20T09:47:34.186Z,63.00
2024-01-20T09:50:00.780Z,63.00
2024-01-20T09:52:27.349Z,63.30
2024-01-20T09:54:53.869Z,63.50
2024-01-20T09:57:20.435Z,63.00
2024-01-20T09:59:46.970Z,62.80
2024-01-20T10:02:13.513Z,62.90
2024-01-20T10:04:40.118Z,63.10
2024-01-20T10:07:06.659Z,63.10
2024-01-20T10:09:33.228Z,63.00
2024-01-20T10:11:59.805Z,63.20
2024-01-20T10:14:26.336Z,63.50
2024-01-20T10:16:52.891Z,63.40
2024-01-20T10:19:19.469Z,63.40
2024-01-20T10:21:46.059Z,64.20
2024-01-20T10:24:12.635Z,63.60
2024-01-20T10:26:39.197Z,63.70
2024-01-20T10:29:05.756Z,63.80
2024-01-20T10:31:32.291Z,63.90
2024-01-20T10:33:58.924Z,63.60
2024-01-20T10:36:25.568Z,63.70
2024-01-20T10:38:52.122Z,63.80
2024-01-20T10:41:18.652Z,64.10
2024-01-20T10:43:45.200Z,63.90
2024-01-20T10:46:11.734Z,63.80
2024-01-20T10:48:38.497Z,64.00
2024-01-20T10:51:05.152Z,64.00
2024-01-20T10:53:31.703Z,64.00
2024-01-20T10:55:58.227Z,63.50
2024-01-20T10:58:24.768Z,63.50
2024-01-20T11:00:51.369Z,63.60
2024-01-20T11:03:18.068Z,63.90
2024-01-20T11:05:44.654Z,63.90
2024-01-20T11:08:11.233Z,64.20
2024-01-20T11:10:37.753Z,64.30
2024-01-20T11:13:04.286Z,64.00
2024-01-20T11:15:30.867Z,63.90
2024-01-20T11:17:57.600Z,63.80
2024-01-20T11:20:24.167Z,63.70
2024-01-20T11:22:50.719Z,63.60
2024-01-20T11:25:17.287Z,63.70
2024-01-20T11:27:43.861Z,63.80
2024-01-20T11:30:10.476Z,64.10
2024-01-20T11:32:37.104Z,64.70
2024-01-20T11:35:03.658Z,64.70
2024-01-20T11:37:30.187Z,64.40
2024-01-20T11:39:56.715Z,64.40
2024-01-20T11:42:23.278Z,64.60
2024-01-20T11:44:49.811Z,64.50
2024-01-20T11:47:16.344Z,64.50
2024-01-20T11:49:42.917Z,64.50
2024-01-20T11:52:09.668Z,64.20
2024-01-20T11:54:36.212Z,64.20
2024-01-20T11:57:02.813Z,63.90
2024-01-20T11:59:29.352Z,63.80
2024-01-20T12:01:55.881Z,64.00
2024-01-20T12:04:22.457Z,64.20
2024-01-20T12:06:49.064Z,64.30
2024-01-20T12:09:15.702Z,64.00
2024-01-20T12:11:42.276Z,64.30
2024-01-20T12:14:08.832Z,63.90
2024-01-20T12:16:35.353Z,64.00
2024-01-20T12:19:01.983Z,64.20
2024-01-20T12:21:28.632Z,64.30
2024-01-20T12:23:55.181Z,64.40
2024-01-20T12:26:21.734Z,64.40
2024-01-20T12:28:48.399Z,64.50
2024-01-20T12:31:17.580Z,64.40
2024-01-20T12:33:46.064Z,64.30
2024-01-20T12:36:12.697Z,64.30
2024-01-20T12:38:39.316Z,64.20
2024-01-20T12:41:05.879Z,63.90
2024-01-20T12:43:32.457Z,63.80
2024-01-20T12:45:58.990Z,63.80
2024-01-20T12:48:25.671Z,64.30
2024-01-20T12:50:52.238Z,64.00
2024-01-20T12:53:18.789Z,63.80
2024-01-20T12:55:45.314Z,63.50
2024-01-20T12:58:11.867Z,63.40
2024-01-20T13:00:38.508Z,62.90
2024-01-20T13:03:05.107Z,63.50
2024-01-20T13:05:31.756Z,63.50
2024-01-20T13:07:58.388Z,63.60
2024-01-20T13:10:24.922Z,63.50
2024-01-20T13:12:51.459Z,63.80
2024-01-20T13:15:18.093Z,63.50
2024-01-20T13:17:44.712Z,63.20
2024-01-20T13:20:11.751Z,63.60
2024-01-20T13:22:38.357Z,63.60
2024-01-20T13:25:04.886Z,63.20
2024-01-20T13:27:31.475Z,63.50
2024-01-20T13:29:58.108Z,63.40
2024-01-20T13:32:24.708Z,63.10
2024-01-20T13:34:51.260Z,63.00
2024-01-20T13:37:17.816Z,63.30
2024-01-20T13:39:44.396Z,63.20
2024-01-20T13:42:10.991Z,63.00
2024-01-20T13:44:37.560Z,62.80
2024-01-20T13:47:04.081Z,62.80
2024-01-20T13:49:30.677Z,63.10
2024-01-20T13:51:57.266Z,63.20
2024-01-20T13:54:23.842Z,63.40
2024-01-20T13:56:50.392Z,63.00
2024-01-20T13:59:16.987Z,62.80
2024-01-20T14:01:43.675Z,62.70
2024-01-20T14:04:10.410Z,62.50
2024-01-20T14:06:37.023Z,62.30
2024-01-20T14:09:03.956Z,62.30
2024-01-20T14:11:30.511Z,62.10
2024-01-20T14:13:57.036Z,62.20
2024-01-20T14:16:23.568Z,62.50
2024-01-20T14:18:50.322Z,62.40
2024-01-20T14:21:17.061Z,62.40
2024-01-20T14:23:43.609Z,62.20
2024-01-20T14:26:10.133Z,61.80
2024-01-20T14:28:36.646Z,61.80
2024-01-20T14:31:03.169Z,61.50
2024-01-20T14:33:29.839Z,61.50
2024-01-20T14:35:56.446Z,61.60
2024-01-20T14:38:22.970Z,61.40
2024-01-20T14:40:49.512Z,61.20
2024-01-20T14:43:16.049Z,60.80
2024-01-20T14:45:42.671Z,61.80
2024-01-20T14:48:09.421Z,61.10
2024-01-20T14:50:36.070Z,60.70
2024-01-20T14:53:02.825Z,60.70
2024-01-20T14:55:31.643Z,60.80
2024-01-20T14:57:58.483Z,60.40
2024-01-20T15:00:25.041Z,60.20
2024-01-20T15:02:51.683Z,60.30
2024-01-20T15:05:18.225Z,60.40
2024-01-20T15:07:44.773Z,60.00
2024-01-20T15:10:11.297Z,59.90
2024-01-20T15:12:37.943Z,59.80
2024-01-20T15:15:04.611Z,59.80
2024-01-20T15:17:36.647Z,59.50
2024-01-20T15:20:03.196Z,59.50
2024-01-20T15:22:29.758Z,59.40
2024-01-20T15:24:56.276Z,59.30
2024-01-20T15:27:22.834Z,59.50
2024-01-20T15:29:49.406Z,59.20
2024-01-20T15:32:15.981Z,59.10
2024-01-20T15:34:42.639Z,58.80
2024-01-20T15:37:09.245Z,58.80
2024-01-20T15:39:36.033Z,58.80
2024-01-20T15:42:02.660Z,58.80
2024-01-20T15:44:29.194Z,58.90
2024-01-20T15:46:55.744Z,58.90
2024-01-20T15:49:22.360Z,58.90
2024-01-20T15:51:49.041Z,59.10
2024-01-20T15:54:15.597Z,58.90
2024-01-20T15:56:42.143Z,58.70
2024-01-20T15:59:08.684Z,58.80
2024-01-20T16:01:35.278Z,58.80
2024-01-20T16:04:01.917Z,58.90
2024-01-20T16:06:28.598Z,59.10
2024-01-20T16:08:55.167Z,59.10
2024-01-20T16:11:21.722Z,59.10
2024-01-20T16:13:48.234Z,59.30
2024-01-20T16:16:14.773Z,59.00
2024-01-20T16:18:41.484Z,59.00
2024-01-20T16:21:08.075Z,59.60
2024-01-20T16:23:34.599Z,59.00
2024-01-20T16:26:01.150Z,59.20
2024-01-20T16:28:29.298Z,59.20
2024-01-20T16:30:57.479Z,59.10
2024-01-20T16:33:24.237Z,58.70
2024-01-20T16:35:50.858Z,58.80
2024-01-20T16:38:17.382Z,58.90
2024-01-20T16:40:43.899Z,58.80
2024-01-20T16:43:10.425Z,58.80
2024-01-20T16:45:36.991Z,58.90
2024-01-20T16:48:03.690Z,59.10
2024-01-20T16:50:30.320Z,58.90
2024-01-20T16:52:56.845Z,58.70
2024-01-20T16:55:23.372Z,58.50
2024-01-20T16:57:49.897Z,58.40
2024-01-20T17:00:16.479Z,58.80
2024-01-20T17:02:43.029Z,58.80
2024-01-20T17:05:09.586Z,58.70
2024-01-20T17:07:36.158Z,58.60
2024-01-20T17:10:02.702Z,58.40
2024-01-20T17:12:29.291Z,58.40
2024-01-20T17:14:55.830Z,58.50
2024-01-20T17:17:22.363Z,58.70
2024-01-20T17:19:49.009Z,58.60
2024-01-20T17:22:15.594Z,58.40
2024-01-20T17:24:42.318Z,58.40
2024-01-20T17:27:09.043Z,58.40
2024-01-20T17:29:35.731Z,58.30
2024-01-20T17:32:02.440Z,58.20
2024-01-20T17:34:28.983Z,58.40
2024-01-20T17:36:55.565Z,58.70
2024-01-20T17:39:22.112Z,58.10
2024-01-20T17:41:48.652Z,58.20
2024-01-20T17:44:15.193Z,58.00
2024-01-20T17:46:41.737Z,58.20
2024-01-20T17:49:08.360Z,57.90
2024-01-20T17:51:35.015Z,57.70
2024-01-20T17:54:01.584Z,57.70
2024-01-20T17:56:28.159Z,57.70
2024-01-20T17:58:54.709Z,57.90
2024-01-20T18:01:21.332Z,58.00
2024-01-20T18:03:47.979Z,57.60
2024-01-20T18:06:14.763Z,57.70
2024-01-20T18:08:41.356Z,57.70
2024-01-20T18:11:07.886Z,57.60
2024-01-20T18:13:34.439Z,57.50
2024-01-20T18:16:01.004Z,57.70
2024-01-20T18:18:27.632Z,57.80
2024-01-20T18:20:54.327Z,57.90
2024-01-20T18:23:20.866Z,57.90
2024-01-20T18:25:47.396Z,57.70
2024-01-20T18:28:15.587Z,57.70
2024-01-20T18:30:43.810Z,57.50
2024-01-20T18:33:10.530Z,57.60
2024-01-20T18:35:37.197Z,57.50
2024-01-20T18:38:03.754Z,57.50
2024-01-20T18:40:30.288Z,57.70
2024-01-20T18:42:56.810Z,57.70
2024-01-20T18:45:23.343Z,57.40
2024-01-20T18:47:49.949Z,57.00
2024-01-20T18:50:16.515Z,56.90
2024-01-20T18:52:43.054Z,56.80
2024-01-20T18:55:09.607Z,56.90
2024-01-20T18:57:36.231Z,56.90
2024-01-20T19:00:02.884Z,56.90
2024-01-20T19:02:29.461Z,56.70
2024-01-20T19:04:56.089Z,56.80
2024-01-20T19:07:22.717Z,56.60
2024-01-20T19:09:49.250Z,56.80
2024-01-20T19:12:15.788Z,56.80
2024-01-20T19:14:42.325Z,56.80
2024-01-20T19:17:08.832Z,56.80
2024-01-20T19:19:35.515Z,56.80
2024-01-20T19:22:02.145Z,56.70
2024-01-20T19:24:28.703Z,56.40
2024-01-20T19:26:55.240Z,56.30
2024-01-20T19:29:21.774Z,56.70
2024-01-20T19:31:48.294Z,56.80
2024-01-20T19:34:14.913Z,56.60
2024-01-20T19:36:41.523Z,56.60
2024-01-20T19:39:08.217Z,56.50
2024-01-20T19:41:34.824Z,56.50
2024-01-20T19:44:01.365Z,56.20
2024-01-20T19:46:27.887Z,56.20
2024-01-20T19:48:54.530Z,56.30
2024-01-20T19:51:21.114Z,56.20
2024-01-20T19:53:47.735Z,56.30
2024-01-20T19:56:14.269Z,56.30
2024-01-20T19:58:40.799Z,56.20
2024-01-20T20:01:07.488Z,56.20
2024-01-20T20:03:34.222Z,56.10
2024-01-20T20:06:00.874Z,56.10
2024-01-20T20:08:27.456Z,56.10
2024-01-20T20:10:53.968Z,56.00
2024-01-20T20:13:20.529Z,55.80
2024-01-20T20:15:47.108Z,55.90
2024-01-20T20:18:13.800Z,55.80
2024-01-20T20:20:40.394Z,55.90
2024-01-20T20:23:06.934Z,55.70
2024-01-20T20:25:33.456Z,55.50
2024-01-20T20:27:59.979Z,55.50
2024-01-20T20:30:28.580Z,55.80
2024-01-20T20:32:55.417Z,55.60
2024-01-20T20:35:22.009Z,56.30
2024-01-20T20:37:48.569Z,55.80
2024-01-20T20:40:15.130Z,55.50
2024-01-20T20:42:41.702Z,55.60
2024-01-20T20:45:08.394Z,55.40
2024-01-20T20:47:35.040Z,55.40
2024-01-20T20:50:01.702Z,55.10
2024-01-20T20:52:28.282Z,55.30
2024-01-20T20:54:54.895Z,55.20
2024-01-20T20:57:21.514Z,55.20
2024-01-20T20:59:48.117Z,55.00
2024-01-20T21:02:14.649Z,54.90
2024-01-20T21:04:41.186Z,55.20
2024-01-20T21:07:07.830Z,55.00
2024-01-20T21:09:34.409Z,55.30
2024-01-20T21:12:00.972Z,54.70
2024-01-20T21:14:27.519Z,54.70
2024-01-20T21:16:54.068Z,54.80
2024-01-20T21:19:20.696Z,54.70
2024-01-20T21:21:47.299Z,54.60
2024-01-20T21:24:13.873Z,54.80
2024-01-20T21:26:40.436Z,54.40
2024-01-20T21:29:06.973Z,54.40
2024-01-20T21:31:33.537Z,54.20
2024-01-20T21:34:00.263Z,54.20
2024-01-20T21:36:26.957Z,54.20
2024-01-20T21:38:53.489Z,54.40
2024-01-20T21:41:20.053Z,54.00
2024-01-20T21:43:46.585Z,54.20
2024-01-20T21:46:13.138Z,54.20
2024-01-20T21:48:39.825Z,54.00
2024-01-20T21:51:06.473Z,54.00
2024-01-20T21:53:33.028Z,54.00
2024-01-20T21:55:59.581Z,54.00
2024-01-20T21:58:26.096Z,54.00
2024-01-20T22:00:52.745Z,54.00
2024-01-20T22:03:19.416Z,54.00
2024-01-20T22:05:46.039Z,54.20
2024-01-20T22:08:12.617Z,54.00
2024-01-20T22:10:39.163Z,53.80
2024-01-20T22:13:05.709Z,53.60
2024-01-20T22:15:32.314Z,53.70
2024-01-20T22:17:59.003Z,53.30
2024-01-20T22:20:25.658Z,53.50
2024-01-20T22:22:52.173Z,53.30
2024-01-20T22:25:18.702Z,53.40
2024-01-20T22:27:45.254Z,53.30
2024-01-20T22:30:11.852Z,53.50
2024-01-20T22:32:38.443Z,53.30
2024-01-20T22:35:05.071Z,53.20
2024-01-20T22:37:31.732Z,53.20
2024-01-20T22:39:58.355Z,53.10
2024-01-20T22:42:24.958Z,52.90
2024-01-20T22:44:51.503Z,53.20
2024-01-20T22:47:18.055Z,53.00
2024-01-20T22:49:44.817Z,53.00
2024-01-20T22:52:11.411Z,52.90
2024-01-20T22:54:37.975Z,52.80
2024-01-20T22:57:04.999Z,52.60
2024-01-20T22:59:31.521Z,52.60
2024-01-20T23:01:58.068Z,52.10
2024-01-20T23:04:24.712Z,52.60
2024-01-20T23:06:51.343Z,52.50
2024-01-20T23:09:17.924Z,52.00
2024-01-20T23:11:44.473Z,52.50
2024-01-20T23:14:10.990Z,52.20
2024-01-20T23:16:37.519Z,52.30
2024-01-20T23:19:04.118Z,52.10
2024-01-20T23:21:30.767Z,52.10
2024-01-20T23:23:57.321Z,52.00
2024-01-20T23:26:23.870Z,51.80
2024-01-20T23:28:50.776Z,52.00
2024-01-20T23:31:17.294Z,51.50
2024-01-20T23:33:43.926Z,51.90
2024-01-20T23:36:10.660Z,51.50
2024-01-20T23:38:37.223Z,52.50
2024-01-20T23:41:03.794Z,51.40
2024-01-20T23:43:30.335Z,51.40
2024-01-20T23:45:56.870Z,51.30
2024-01-20T23:48:23.450Z,51.40
2024-01-20T23:50:49.993Z,51.20
2024-01-20T23:53:16.538Z,50.80
2024-01-20T23:55:43.067Z,51.40
2024-01-20T23:58:09.757Z,51.40
